Pittville, California
Current Conditions -  °F | °C
As of 11:55 AM on Monday 24 Nov 2014 (Local Time) from KAAT Reporting Station
Clear Clear  
Wind Chill: 43°   Ceiling: Unl
Heat Index: 43°   Visibility: 10mi
Dew Point: 25°   Wind: 3mph
Humidity: 49%   Direction: 360°N
Pressure: 30.43"   Gusts: NA
Location:  40.9954°N, 121.135°W
Report Text: KAAT 241955Z AUTO 36003KT 10SM CLR 06/M04 A3043 RMK AO2 SLP319 T00611039
Loading
Personal Weather Stations






























Interactive Weather Map New forecast layout! Learn more

10-Day Weather Forecast

Advertisements
Track Severe Weather on mobile